sensor_id;sensor_type;location;lat;lon;timestamp;temperature;humidity
23271;DHT22;11804;51.118;17.058;2022-11-04T00:02:19;10.70;99.90
23271;DHT22;11804;51.118;17.058;2022-11-04T00:04:47;10.60;99.90
23271;DHT22;11804;51.118;17.058;2022-11-04T00:07:14;10.60;99.90
23271;DHT22;11804;51.118;17.058;2022-11-04T00:10:01;10.60;99.90
23271;DHT22;11804;51.118;17.058;2022-11-04T00:12:29;10.60;99.90
23271;DHT22;11804;51.118;17.058;2022-11-04T00:14:56;10.60;99.90
23271;DHT22;11804;51.118;17.058;2022-11-04T00:17:25;10.60;99.90
23271;DHT22;11804;51.118;17.058;2022-11-04T00:19:54;10.50;99.90
23271;DHT22;11804;51.118;17.058;2022-11-04T00:22:40;10.50;99.90
23271;DHT22;11804;51.118;17.058;2022-11-04T00:25:27;10.50;99.90
23271;DHT22;11804;51.118;17.058;2022-11-04T00:28:19;10.50;99.90
23271;DHT22;11804;51.118;17.058;2022-11-04T00:31:03;10.50;99.90
23271;DHT22;11804;51.118;17.058;2022-11-04T00:33:51;10.50;99.90
23271;DHT22;11804;51.118;17.058;2022-11-04T00:36:19;10.50;99.90
23271;DHT22;11804;51.118;17.058;2022-11-04T00:38:47;10.40;99.90
23271;DHT22;11804;51.118;17.058;2022-11-04T00:41:14;10.40;99.90
23271;DHT22;11804;51.118;17.058;2022-11-04T00:43:57;10.30;99.90
23271;DHT22;11804;51.118;17.058;2022-11-04T00:46:26;10.30;99.90
23271;DHT22;11804;51.118;17.058;2022-11-04T00:48:54;10.20;99.90
23271;DHT22;11804;51.118;17.058;2022-11-04T00:51:22;10.20;99.90
23271;DHT22;11804;51.118;17.058;2022-11-04T00:53:50;10.20;99.90
23271;DHT22;11804;51.118;17.058;2022-11-04T00:56:18;10.20;99.90
23271;DHT22;11804;51.118;17.058;2022-11-04T00:58:45;10.20;99.90
23271;DHT22;11804;51.118;17.058;2022-11-04T01:01:16;10.20;99.90
23271;DHT22;11804;51.118;17.058;2022-11-04T01:03:49;10.20;99.90
23271;DHT22;11804;51.118;17.058;2022-11-04T01:06:18;10.20;99.90
23271;DHT22;11804;51.118;17.058;2022-11-04T01:08:47;10.20;99.90
23271;DHT22;11804;51.118;17.058;2022-11-04T01:11:15;10.20;99.90
23271;DHT22;11804;51.118;17.058;2022-11-04T01:13:42;10.20;99.90
23271;DHT22;11804;51.118;17.058;2022-11-04T01:16:13;10.20;99.90
23271;DHT22;11804;51.118;17.058;2022-11-04T01:18:41;10.20;99.90
23271;DHT22;11804;51.118;17.058;2022-11-04T01:21:11;10.20;99.90
23271;DHT22;11804;51.118;17.058;2022-11-04T01:23:40;10.10;99.90
23271;DHT22;11804;51.118;17.058;2022-11-04T01:26:17;10.10;99.90
23271;DHT22;11804;51.118;17.058;2022-11-04T01:28:45;10.10;99.90
23271;DHT22;11804;51.118;17.058;2022-11-04T01:31:15;10.10;99.90
23271;DHT22;11804;51.118;17.058;2022-11-04T01:33:43;10.10;99.90
23271;DHT22;11804;51.118;17.058;2022-11-04T01:36:11;10.10;99.90
23271;DHT22;11804;51.118;17.058;2022-11-04T01:38:39;10.10;99.90
23271;DHT22;11804;51.118;17.058;2022-11-04T01:41:09;10.10;99.90
23271;DHT22;11804;51.118;17.058;2022-11-04T01:43:47;10.10;99.90
23271;DHT22;11804;51.118;17.058;2022-11-04T01:46:19;10.10;99.90
23271;DHT22;11804;51.118;17.058;2022-11-04T01:48:44;10.10;99.90
23271;DHT22;11804;51.118;17.058;2022-11-04T01:51:13;10.10;99.90
23271;DHT22;11804;51.118;17.058;2022-11-04T01:53:42;10.10;99.90
23271;DHT22;11804;51.118;17.058;2022-11-04T01:56:11;10.10;99.90
23271;DHT22;11804;51.118;17.058;2022-11-04T01:58:43;10.20;99.90
23271;DHT22;11804;51.118;17.058;2022-11-04T02:01:11;10.20;99.90
23271;DHT22;11804;51.118;17.058;2022-11-04T02:03:46;10.20;99.90
23271;DHT22;11804;51.118;17.058;2022-11-04T02:06:10;10.20;99.90
23271;DHT22;11804;51.118;17.058;2022-11-04T02:08:39;10.10;99.90
23271;DHT22;11804;51.118;17.058;2022-11-04T02:11:07;10.20;99.90
23271;DHT22;11804;51.118;17.058;2022-11-04T02:13:35;10.20;99.90
23271;DHT22;11804;51.118;17.058;2022-11-04T02:16:29;10.20;99.90
23271;DHT22;11804;51.118;17.058;2022-11-04T02:21:53;10.20;99.90
23271;DHT22;11804;51.118;17.058;2022-11-04T02:24:59;10.20;99.90
23271;DHT22;11804;51.118;17.058;2022-11-04T02:27:53;10.20;99.90
23271;DHT22;11804;51.118;17.058;2022-11-04T02:30:18;10.20;99.90
23271;DHT22;11804;51.118;17.058;2022-11-04T02:46:15;10.20;99.90
23271;DHT22;11804;51.118;17.058;2022-11-04T02:48:54;10.20;99.90
23271;DHT22;11804;51.118;17.058;2022-11-04T02:51:30;10.10;99.90
23271;DHT22;11804;51.118;17.058;2022-11-04T02:54:03;10.20;99.90
23271;DHT22;11804;51.118;17.058;2022-11-04T02:56:33;10.10;99.90
23271;DHT22;11804;51.118;17.058;2022-11-04T02:59:04;10.10;99.90
23271;DHT22;11804;51.118;17.058;2022-11-04T03:01:33;10.10;99.90
23271;DHT22;11804;51.118;17.058;2022-11-04T03:04:14;10.20;99.90
23271;DHT22;11804;51.118;17.058;2022-11-04T03:06:33;10.10;99.90
23271;DHT22;11804;51.118;17.058;2022-11-04T03:09:03;10.10;99.90
23271;DHT22;11804;51.118;17.058;2022-11-04T03:11:31;10.10;99.90
23271;DHT22;11804;51.118;17.058;2022-11-04T03:14:07;10.20;99.90
23271;DHT22;11804;51.118;17.058;2022-11-04T03:16:40;10.10;99.90
23271;DHT22;11804;51.118;17.058;2022-11-04T03:19:12;10.20;99.90
23271;DHT22;11804;51.118;17.058;2022-11-04T03:21:42;10.20;99.90
23271;DHT22;11804;51.118;17.058;2022-11-04T03:24:10;10.20;99.90
23271;DHT22;11804;51.118;17.058;2022-11-04T03:27:19;10.20;99.90
23271;DHT22;11804;51.118;17.058;2022-11-04T03:29:34;10.20;99.90
23271;DHT22;11804;51.118;17.058;2022-11-04T03:32:12;10.20;99.90
23271;DHT22;11804;51.118;17.058;2022-11-04T03:34:39;10.30;99.90
23271;DHT22;11804;51.118;17.058;2022-11-04T03:37:06;10.20;99.90
23271;DHT22;11804;51.118;17.058;2022-11-04T03:39:34;10.30;99.90
23271;DHT22;11804;51.118;17.058;2022-11-04T03:42:09;10.30;99.90
23271;DHT22;11804;51.118;17.058;2022-11-04T03:44:34;10.30;99.90
23271;DHT22;11804;51.118;17.058;2022-11-04T03:47:02;10.30;99.90
23271;DHT22;11804;51.118;17.058;2022-11-04T03:49:29;10.40;99.90
23271;DHT22;11804;51.118;17.058;2022-11-04T03:51:57;10.40;99.90
23271;DHT22;11804;51.118;17.058;2022-11-04T03:54:25;10.40;99.90
23271;DHT22;11804;51.118;17.058;2022-11-04T03:57:02;10.50;99.90
23271;DHT22;11804;51.118;17.058;2022-11-04T03:59:48;10.40;99.90
23271;DHT22;11804;51.118;17.058;2022-11-04T04:02:45;10.50;99.90
23271;DHT22;11804;51.118;17.058;2022-11-04T04:05:18;10.40;99.90
23271;DHT22;11804;51.118;17.058;2022-11-04T04:07:58;10.40;99.90
23271;DHT22;11804;51.118;17.058;2022-11-04T04:10:36;10.40;99.90
23271;DHT22;11804;51.118;17.058;2022-11-04T04:15:49;10.40;99.90
23271;DHT22;11804;51.118;17.058;2022-11-04T04:18:22;10.40;99.90
23271;DHT22;11804;51.118;17.058;2022-11-04T04:20:49;10.40;99.90
23271;DHT22;11804;51.118;17.058;2022-11-04T04:23:21;10.30;99.90
23271;DHT22;11804;51.118;17.058;2022-11-04T04:26:08;10.30;99.90
23271;DHT22;11804;51.118;17.058;2022-11-04T04:28:56;10.30;99.90
23271;DHT22;11804;51.118;17.058;2022-11-04T04:31:28;10.30;99.90
23271;DHT22;11804;51.118;17.058;2022-11-04T04:34:17;10.30;99.90
23271;DHT22;11804;51.118;17.058;2022-11-04T04:37:29;10.40;99.90
23271;DHT22;11804;51.118;17.058;2022-11-04T04:39:21;10.40;99.90
23271;DHT22;11804;51.118;17.058;2022-11-04T04:42:07;10.40;99.90
23271;DHT22;11804;51.118;17.058;2022-11-04T04:44:54;10.40;99.90
23271;DHT22;11804;51.118;17.058;2022-11-04T04:47:44;10.40;99.90
23271;DHT22;11804;51.118;17.058;2022-11-04T04:50:15;10.50;99.90
23271;DHT22;11804;51.118;17.058;2022-11-04T04:52:45;10.50;99.90
23271;DHT22;11804;51.118;17.058;2022-11-04T04:55:14;10.50;99.90
23271;DHT22;11804;51.118;17.058;2022-11-04T04:57:42;10.50;99.90
23271;DHT22;11804;51.118;17.058;2022-11-04T05:00:13;10.50;99.90
23271;DHT22;11804;51.118;17.058;2022-11-04T05:02:41;10.60;99.90
23271;DHT22;11804;51.118;17.058;2022-11-04T05:05:09;10.60;99.90
23271;DHT22;11804;51.118;17.058;2022-11-04T05:07:37;10.60;99.90
23271;DHT22;11804;51.118;17.058;2022-11-04T05:10:06;10.60;99.90
23271;DHT22;11804;51.118;17.058;2022-11-04T05:12:35;10.50;99.90
23271;DHT22;11804;51.118;17.058;2022-11-04T05:15:21;10.50;99.90
23271;DHT22;11804;51.118;17.058;2022-11-04T05:17:57;10.50;99.90
23271;DHT22;11804;51.118;17.058;2022-11-04T05:20:25;10.40;99.90
23271;DHT22;11804;51.118;17.058;2022-11-04T05:22:54;10.40;99.90
23271;DHT22;11804;51.118;17.058;2022-11-04T05:25:22;10.40;99.90
23271;DHT22;11804;51.118;17.058;2022-11-04T05:27:49;10.50;99.90
23271;DHT22;11804;51.118;17.058;2022-11-04T05:30:17;10.50;99.90
23271;DHT22;11804;51.118;17.058;2022-11-04T05:32:44;10.50;99.90
23271;DHT22;11804;51.118;17.058;2022-11-04T05:35:12;10.50;99.90
23271;DHT22;11804;51.118;17.058;2022-11-04T05:37:39;10.50;99.90
23271;DHT22;11804;51.118;17.058;2022-11-04T05:40:08;10.50;99.90
23271;DHT22;11804;51.118;17.058;2022-11-04T05:42:35;10.60;99.90
23271;DHT22;11804;51.118;17.058;2022-11-04T05:45:04;10.60;99.90
23271;DHT22;11804;51.118;17.058;2022-11-04T05:47:31;10.60;99.90
23271;DHT22;11804;51.118;17.058;2022-11-04T05:49:59;10.60;99.90
23271;DHT22;11804;51.118;17.058;2022-11-04T05:52:26;10.60;99.90
23271;DHT22;11804;51.118;17.058;2022-11-04T05:54:54;10.60;99.90
23271;DHT22;11804;51.118;17.058;2022-11-04T05:57:21;10.50;99.90
23271;DHT22;11804;51.118;17.058;2022-11-04T05:59:49;10.60;99.90
23271;DHT22;11804;51.118;17.058;2022-11-04T06:02:16;10.50;99.90
23271;DHT22;11804;51.118;17.058;2022-11-04T06:04:44;10.50;99.90
23271;DHT22;11804;51.118;17.058;2022-11-04T06:07:11;10.50;99.90
23271;DHT22;11804;51.118;17.058;2022-11-04T06:09:39;10.40;99.90
23271;DHT22;11804;51.118;17.058;2022-11-04T06:12:12;10.50;99.90
23271;DHT22;11804;51.118;17.058;2022-11-04T06:14:43;10.60;99.90
23271;DHT22;11804;51.118;17.058;2022-11-04T06:17:16;10.60;99.90
23271;DHT22;11804;51.118;17.058;2022-11-04T06:19:44;10.60;99.90
23271;DHT22;11804;51.118;17.058;2022-11-04T06:22:14;10.60;99.90
23271;DHT22;11804;51.118;17.058;2022-11-04T06:24:43;10.60;99.90
23271;DHT22;11804;51.118;17.058;2022-11-04T06:27:11;10.70;99.90
23271;DHT22;11804;51.118;17.058;2022-11-04T06:29:39;10.80;99.90
23271;DHT22;11804;51.118;17.058;2022-11-04T06:32:12;10.80;99.90
23271;DHT22;11804;51.118;17.058;2022-11-04T06:34:40;10.80;99.90
23271;DHT22;11804;51.118;17.058;2022-11-04T06:37:10;10.80;99.90
23271;DHT22;11804;51.118;17.058;2022-11-04T06:39:37;10.80;99.90
23271;DHT22;11804;51.118;17.058;2022-11-04T06:42:05;10.90;99.90
23271;DHT22;11804;51.118;17.058;2022-11-04T06:44:33;10.90;99.90
23271;DHT22;11804;51.118;17.058;2022-11-04T06:47:01;11.00;99.90
23271;DHT22;11804;51.118;17.058;2022-11-04T06:49:28;10.90;99.90
23271;DHT22;11804;51.118;17.058;2022-11-04T06:51:56;11.00;99.90
23271;DHT22;11804;51.118;17.058;2022-11-04T06:54:23;11.00;99.90
23271;DHT22;11804;51.118;17.058;2022-11-04T06:56:51;11.10;99.90
23271;DHT22;11804;51.118;17.058;2022-11-04T06:59:19;11.30;99.90
23271;DHT22;11804;51.118;17.058;2022-11-04T07:01:48;11.30;99.90
23271;DHT22;11804;51.118;17.058;2022-11-04T07:04:17;11.40;99.90
23271;DHT22;11804;51.118;17.058;2022-11-04T07:06:45;11.60;99.90
23271;DHT22;11804;51.118;17.058;2022-11-04T07:09:14;11.60;99.90
23271;DHT22;11804;51.118;17.058;2022-11-04T07:11:43;11.70;99.90
23271;DHT22;11804;51.118;17.058;2022-11-04T07:14:11;11.80;99.90
23271;DHT22;11804;51.118;17.058;2022-11-04T07:16:39;11.80;99.90
23271;DHT22;11804;51.118;17.058;2022-11-04T07:19:07;11.80;99.90
23271;DHT22;11804;51.118;17.058;2022-11-04T07:21:34;11.80;99.90
23271;DHT22;11804;51.118;17.058;2022-11-04T07:24:02;11.90;99.90
23271;DHT22;11804;51.118;17.058;2022-11-04T07:26:30;11.90;99.90
23271;DHT22;11804;51.118;17.058;2022-11-04T07:28:58;11.80;99.90
23271;DHT22;11804;51.118;17.058;2022-11-04T07:31:27;11.80;99.90
23271;DHT22;11804;51.118;17.058;2022-11-04T07:33:54;11.80;99.90
23271;DHT22;11804;51.118;17.058;2022-11-04T07:36:22;11.90;99.90
23271;DHT22;11804;51.118;17.058;2022-11-04T07:38:49;12.00;99.90
23271;DHT22;11804;51.118;17.058;2022-11-04T07:41:17;12.00;99.90
23271;DHT22;11804;51.118;17.058;2022-11-04T07:43:49;12.10;99.90
23271;DHT22;11804;51.118;17.058;2022-11-04T07:46:18;12.10;99.90
23271;DHT22;11804;51.118;17.058;2022-11-04T07:48:46;12.10;99.90
23271;DHT22;11804;51.118;17.058;2022-11-04T07:51:17;12.10;99.90
23271;DHT22;11804;51.118;17.058;2022-11-04T07:53:45;12.10;99.90
23271;DHT22;11804;51.118;17.058;2022-11-04T07:56:13;12.10;99.90
23271;DHT22;11804;51.118;17.058;2022-11-04T07:58:41;12.20;99.90
23271;DHT22;11804;51.118;17.058;2022-11-04T08:01:12;12.30;99.90
23271;DHT22;11804;51.118;17.058;2022-11-04T08:03:40;12.40;99.90
23271;DHT22;11804;51.118;17.058;2022-11-04T08:06:10;12.40;99.90
23271;DHT22;11804;51.118;17.058;2022-11-04T08:08:38;12.40;99.90
23271;DHT22;11804;51.118;17.058;2022-11-04T08:11:07;12.50;99.90
23271;DHT22;11804;51.118;17.058;2022-11-04T08:13:36;12.40;99.90
23271;DHT22;11804;51.118;17.058;2022-11-04T08:16:06;12.40;99.90
23271;DHT22;11804;51.118;17.058;2022-11-04T08:18:35;12.40;99.90
23271;DHT22;11804;51.118;17.058;2022-11-04T08:21:03;12.30;99.90
23271;DHT22;11804;51.118;17.058;2022-11-04T08:23:32;12.30;99.90
23271;DHT22;11804;51.118;17.058;2022-11-04T08:26:00;12.30;99.90
23271;DHT22;11804;51.118;17.058;2022-11-04T08:28:28;12.30;99.90
23271;DHT22;11804;51.118;17.058;2022-11-04T08:31:13;12.20;99.90
23271;DHT22;11804;51.118;17.058;2022-11-04T08:33:35;12.20;99.90
23271;DHT22;11804;51.118;17.058;2022-11-04T08:36:05;12.30;99.90
23271;DHT22;11804;51.118;17.058;2022-11-04T08:38:35;12.40;99.90
23271;DHT22;11804;51.118;17.058;2022-11-04T08:41:05;12.40;99.90
23271;DHT22;11804;51.118;17.058;2022-11-04T08:43:33;12.50;99.90
23271;DHT22;11804;51.118;17.058;2022-11-04T08:46:04;12.60;99.90
23271;DHT22;11804;51.118;17.058;2022-11-04T08:48:33;12.80;99.90
23271;DHT22;11804;51.118;17.058;2022-11-04T08:51:04;12.80;99.90
23271;DHT22;11804;51.118;17.058;2022-11-04T08:53:32;13.00;99.90
23271;DHT22;11804;51.118;17.058;2022-11-04T08:56:07;13.10;99.90
23271;DHT22;11804;51.118;17.058;2022-11-04T08:58:28;13.20;99.90
23271;DHT22;11804;51.118;17.058;2022-11-04T09:00:56;13.40;99.90
23271;DHT22;11804;51.118;17.058;2022-11-04T09:03:23;13.50;99.90
23271;DHT22;11804;51.118;17.058;2022-11-04T09:05:51;13.60;99.90
23271;DHT22;11804;51.118;17.058;2022-11-04T09:08:22;13.60;99.90
23271;DHT22;11804;51.118;17.058;2022-11-04T09:10:49;13.70;99.90
23271;DHT22;11804;51.118;17.058;2022-11-04T09:13:16;13.70;99.90
23271;DHT22;11804;51.118;17.058;2022-11-04T09:15:44;13.80;99.90
23271;DHT22;11804;51.118;17.058;2022-11-04T09:18:13;13.90;99.90
23271;DHT22;11804;51.118;17.058;2022-11-04T09:20:41;14.10;99.90
23271;DHT22;11804;51.118;17.058;2022-11-04T09:23:09;14.50;99.90
23271;DHT22;11804;51.118;17.058;2022-11-04T09:25:37;14.90;99.90
23271;DHT22;11804;51.118;17.058;2022-11-04T09:28:04;15.20;99.90
23271;DHT22;11804;51.118;17.058;2022-11-04T09:30:32;15.50;99.90
23271;DHT22;11804;51.118;17.058;2022-11-04T09:33:00;15.60;99.90
23271;DHT22;11804;51.118;17.058;2022-11-04T09:35:30;15.70;99.90
23271;DHT22;11804;51.118;17.058;2022-11-04T09:37:59;15.70;99.90
23271;DHT22;11804;51.118;17.058;2022-11-04T09:40:28;16.00;99.90
23271;DHT22;11804;51.118;17.058;2022-11-04T09:45:33;16.00;99.90
23271;DHT22;11804;51.118;17.058;2022-11-04T09:48:03;15.90;99.90
23271;DHT22;11804;51.118;17.058;2022-11-04T09:50:40;15.90;99.90
23271;DHT22;11804;51.118;17.058;2022-11-04T09:53:04;15.70;99.90
23271;DHT22;11804;51.118;17.058;2022-11-04T09:58:11;15.60;99.90
23271;DHT22;11804;51.118;17.058;2022-11-04T10:00:42;15.40;99.90
23271;DHT22;11804;51.118;17.058;2022-11-04T10:08:54;14.90;99.90
23271;DHT22;11804;51.118;17.058;2022-11-04T10:16:43;14.60;99.90
23271;DHT22;11804;51.118;17.058;2022-11-04T10:19:35;14.50;99.90
23271;DHT22;11804;51.118;17.058;2022-11-04T10:27:23;14.60;99.90
23271;DHT22;11804;51.118;17.058;2022-11-04T10:30:01;14.60;99.90
23271;DHT22;11804;51.118;17.058;2022-11-04T10:32:37;14.60;99.90
23271;DHT22;11804;51.118;17.058;2022-11-04T10:35:14;14.70;99.90
23271;DHT22;11804;51.118;17.058;2022-11-04T10:37:39;14.70;99.90
23271;DHT22;11804;51.118;17.058;2022-11-04T10:40:24;14.60;99.90
23271;DHT22;11804;51.118;17.058;2022-11-04T10:42:53;14.50;99.90
23271;DHT22;11804;51.118;17.058;2022-11-04T10:45:25;14.40;99.90
23271;DHT22;11804;51.118;17.058;2022-11-04T10:48:13;14.40;99.90
23271;DHT22;11804;51.118;17.058;2022-11-04T10:50:46;14.30;99.90
23271;DHT22;11804;51.118;17.058;2022-11-04T10:53:13;14.30;99.90
23271;DHT22;11804;51.118;17.058;2022-11-04T10:58:34;14.30;99.90
23271;DHT22;11804;51.118;17.058;2022-11-04T11:03:55;14.20;99.90
23271;DHT22;11804;51.118;17.058;2022-11-04T11:06:28;14.20;99.90
23271;DHT22;11804;51.118;17.058;2022-11-04T11:09:13;14.20;99.90
23271;DHT22;11804;51.118;17.058;2022-11-04T11:11:50;14.20;99.90
23271;DHT22;11804;51.118;17.058;2022-11-04T11:14:30;14.20;99.90
23271;DHT22;11804;51.118;17.058;2022-11-04T11:17:17;14.20;99.90
23271;DHT22;11804;51.118;17.058;2022-11-04T11:19:57;14.20;99.90
23271;DHT22;11804;51.118;17.058;2022-11-04T11:22:34;14.40;99.90
23271;DHT22;11804;51.118;17.058;2022-11-04T11:27:55;15.00;99.90
23271;DHT22;11804;51.118;17.058;2022-11-04T11:30:33;15.10;99.90
23271;DHT22;11804;51.118;17.058;2022-11-04T11:33:14;15.30;99.90
23271;DHT22;11804;51.118;17.058;2022-11-04T11:38:26;15.30;99.90
23271;DHT22;11804;51.118;17.058;2022-11-04T11:41:05;15.30;99.90
23271;DHT22;11804;51.118;17.058;2022-11-04T11:43:35;15.30;99.90
23271;DHT22;11804;51.118;17.058;2022-11-04T11:46:04;15.20;99.90
23271;DHT22;11804;51.118;17.058;2022-11-04T11:48:40;15.10;99.90
23271;DHT22;11804;51.118;17.058;2022-11-04T11:51:13;15.10;99.90
23271;DHT22;11804;51.118;17.058;2022-11-04T11:53:56;15.00;99.90
23271;DHT22;11804;51.118;17.058;2022-11-04T11:56:23;14.80;99.90
23271;DHT22;11804;51.118;17.058;2022-11-04T11:59:16;14.70;99.90
23271;DHT22;11804;51.118;17.058;2022-11-04T12:01:47;14.60;99.90
23271;DHT22;11804;51.118;17.058;2022-11-04T12:04:20;14.50;99.90
23271;DHT22;11804;51.118;17.058;2022-11-04T12:07:02;14.50;99.90
23271;DHT22;11804;51.118;17.058;2022-11-04T12:12:54;14.50;99.90
23271;DHT22;11804;51.118;17.058;2022-11-04T12:18:27;14.70;99.90
23271;DHT22;11804;51.118;17.058;2022-11-04T12:23:58;14.70;99.90
23271;DHT22;11804;51.118;17.058;2022-11-04T12:26:36;14.60;99.90
23271;DHT22;11804;51.118;17.058;2022-11-04T12:30:10;14.60;99.90
23271;DHT22;11804;51.118;17.058;2022-11-04T12:37:16;14.10;99.90
23271;DHT22;11804;51.118;17.058;2022-11-04T12:40:04;14.00;99.90
23271;DHT22;11804;51.118;17.058;2022-11-04T12:45:52;13.90;99.90
23271;DHT22;11804;51.118;17.058;2022-11-04T12:48:33;13.90;99.90
23271;DHT22;11804;51.118;17.058;2022-11-04T12:51:05;14.00;99.90
23271;DHT22;11804;51.118;17.058;2022-11-04T12:56:16;14.00;99.90
23271;DHT22;11804;51.118;17.058;2022-11-04T13:04:25;13.80;99.90
23271;DHT22;11804;51.118;17.058;2022-11-04T13:06:58;13.80;99.90
23271;DHT22;11804;51.118;17.058;2022-11-04T13:09:51;13.80;99.90
23271;DHT22;11804;51.118;17.058;2022-11-04T13:12:29;13.80;99.90
23271;DHT22;11804;51.118;17.058;2022-11-04T13:14:59;13.80;99.90
23271;DHT22;11804;51.118;17.058;2022-11-04T13:17:30;13.80;99.90
23271;DHT22;11804;51.118;17.058;2022-11-04T13:22:46;13.80;99.90
23271;DHT22;11804;51.118;17.058;2022-11-04T13:25:23;13.80;99.90
23271;DHT22;11804;51.118;17.058;2022-11-04T13:27:50;13.70;99.90
23271;DHT22;11804;51.118;17.058;2022-11-04T13:30:36;13.70;99.90
23271;DHT22;11804;51.118;17.058;2022-11-04T13:33:13;13.70;99.90
23271;DHT22;11804;51.118;17.058;2022-11-04T13:35:54;13.70;99.90
23271;DHT22;11804;51.118;17.058;2022-11-04T13:38:34;13.70;99.90
23271;DHT22;11804;51.118;17.058;2022-11-04T13:41:21;13.60;99.90
23271;DHT22;11804;51.118;17.058;2022-11-04T13:43:52;13.60;99.90
23271;DHT22;11804;51.118;17.058;2022-11-04T13:46:24;13.60;99.90
23271;DHT22;11804;51.118;17.058;2022-11-04T13:51:44;13.50;99.90
23271;DHT22;11804;51.118;17.058;2022-11-04T13:54:34;13.50;99.90
23271;DHT22;11804;51.118;17.058;2022-11-04T13:57:05;13.50;99.90
23271;DHT22;11804;51.118;17.058;2022-11-04T13:59:34;13.60;99.90
23271;DHT22;11804;51.118;17.058;2022-11-04T14:04:43;13.50;99.90
23271;DHT22;11804;51.118;17.058;2022-11-04T14:07:15;13.50;99.90
23271;DHT22;11804;51.118;17.058;2022-11-04T14:09:55;13.50;99.90
23271;DHT22;11804;51.118;17.058;2022-11-04T14:12:27;13.50;99.90
23271;DHT22;11804;51.118;17.058;2022-11-04T14:15:10;13.40;99.90
23271;DHT22;11804;51.118;17.058;2022-11-04T14:20:26;13.40;99.90
23271;DHT22;11804;51.118;17.058;2022-11-04T14:23:01;13.40;99.90
23271;DHT22;11804;51.118;17.058;2022-11-04T14:25:34;13.40;99.90
23271;DHT22;11804;51.118;17.058;2022-11-04T14:33:31;13.40;99.90
23271;DHT22;11804;51.118;17.058;2022-11-04T14:39:19;13.30;99.90
23271;DHT22;11804;51.118;17.058;2022-11-04T14:44:17;13.20;99.90
23271;DHT22;11804;51.118;17.058;2022-11-04T14:46:44;13.10;99.90
23271;DHT22;11804;51.118;17.058;2022-11-04T14:52:25;13.10;99.90
23271;DHT22;11804;51.118;17.058;2022-11-04T14:55:19;13.00;99.90
23271;DHT22;11804;51.118;17.058;2022-11-04T14:57:28;13.00;99.90
23271;DHT22;11804;51.118;17.058;2022-11-04T14:59:55;13.00;99.90
23271;DHT22;11804;51.118;17.058;2022-11-04T15:02:26;13.10;99.90
23271;DHT22;11804;51.118;17.058;2022-11-04T15:05:01;13.00;99.90
23271;DHT22;11804;51.118;17.058;2022-11-04T15:07:34;13.00;99.90
23271;DHT22;11804;51.118;17.058;2022-11-04T15:10:16;12.90;99.90
23271;DHT22;11804;51.118;17.058;2022-11-04T15:12:32;12.90;99.90
23271;DHT22;11804;51.118;17.058;2022-11-04T15:15:40;12.90;99.90
23271;DHT22;11804;51.118;17.058;2022-11-04T15:18:20;12.90;99.90
23271;DHT22;11804;51.118;17.058;2022-11-04T15:20:52;12.90;99.90
23271;DHT22;11804;51.118;17.058;2022-11-04T15:23:32;12.90;99.90
23271;DHT22;11804;51.118;17.058;2022-11-04T15:26:02;12.80;99.90
23271;DHT22;11804;51.118;17.058;2022-11-04T15:28:32;12.80;99.90
23271;DHT22;11804;51.118;17.058;2022-11-04T15:33:49;12.80;99.90
23271;DHT22;11804;51.118;17.058;2022-11-04T15:36:22;12.80;99.90
23271;DHT22;11804;51.118;17.058;2022-11-04T15:38:55;12.80;99.90
23271;DHT22;11804;51.118;17.058;2022-11-04T15:41:20;12.80;99.90
23271;DHT22;11804;51.118;17.058;2022-11-04T15:44:15;12.70;99.90
23271;DHT22;11804;51.118;17.058;2022-11-04T15:46:55;12.70;99.90
23271;DHT22;11804;51.118;17.058;2022-11-04T15:49:28;12.60;99.90
23271;DHT22;11804;51.118;17.058;2022-11-04T15:52:04;12.70;99.90
23271;DHT22;11804;51.118;17.058;2022-11-04T15:54:34;12.70;99.90
23271;DHT22;11804;51.118;17.058;2022-11-04T15:57:10;12.70;99.90
23271;DHT22;11804;51.118;17.058;2022-11-04T15:59:35;12.60;99.90
23271;DHT22;11804;51.118;17.058;2022-11-04T16:02:05;12.60;99.90
23271;DHT22;11804;51.118;17.058;2022-11-04T16:04:33;12.50;99.90
23271;DHT22;11804;51.118;17.058;2022-11-04T16:07:19;12.50;99.90
23271;DHT22;11804;51.118;17.058;2022-11-04T16:09:46;12.60;99.90
23271;DHT22;11804;51.118;17.058;2022-11-04T16:12:26;12.60;99.90
23271;DHT22;11804;51.118;17.058;2022-11-04T16:14:49;12.50;99.90
23271;DHT22;11804;51.118;17.058;2022-11-04T16:17:18;12.50;99.90
23271;DHT22;11804;51.118;17.058;2022-11-04T16:19:49;12.50;99.90
23271;DHT22;11804;51.118;17.058;2022-11-04T16:22:29;12.50;99.90
23271;DHT22;11804;51.118;17.058;2022-11-04T16:24:54;12.50;99.90
23271;DHT22;11804;51.118;17.058;2022-11-04T16:27:23;12.50;99.90
23271;DHT22;11804;51.118;17.058;2022-11-04T16:29:55;12.50;99.90
23271;DHT22;11804;51.118;17.058;2022-11-04T16:32:28;12.50;99.90
23271;DHT22;11804;51.118;17.058;2022-11-04T16:34:58;12.40;99.90
23271;DHT22;11804;51.118;17.058;2022-11-04T16:37:27;12.40;99.90
23271;DHT22;11804;51.118;17.058;2022-11-04T16:39:56;12.30;99.90
23271;DHT22;11804;51.118;17.058;2022-11-04T16:42:24;12.40;99.90
23271;DHT22;11804;51.118;17.058;2022-11-04T16:44:54;12.30;99.90
23271;DHT22;11804;51.118;17.058;2022-11-04T16:47:22;12.40;99.90
23271;DHT22;11804;51.118;17.058;2022-11-04T16:49:51;12.40;99.90
23271;DHT22;11804;51.118;17.058;2022-11-04T16:52:23;12.30;99.90
23271;DHT22;11804;51.118;17.058;2022-11-04T16:54:53;12.40;99.90
23271;DHT22;11804;51.118;17.058;2022-11-04T16:57:23;12.40;99.90
23271;DHT22;11804;51.118;17.058;2022-11-04T16:59:51;12.40;99.90
23271;DHT22;11804;51.118;17.058;2022-11-04T17:02:28;12.30;99.90
23271;DHT22;11804;51.118;17.058;2022-11-04T17:04:52;12.30;99.90
23271;DHT22;11804;51.118;17.058;2022-11-04T17:07:20;12.20;99.90
23271;DHT22;11804;51.118;17.058;2022-11-04T17:09:48;12.20;99.90
23271;DHT22;11804;51.118;17.058;2022-11-04T17:12:15;12.20;99.90
23271;DHT22;11804;51.118;17.058;2022-11-04T17:14:43;12.10;99.90
23271;DHT22;11804;51.118;17.058;2022-11-04T17:17:10;12.00;99.90
23271;DHT22;11804;51.118;17.058;2022-11-04T17:19:38;12.00;99.90
23271;DHT22;11804;51.118;17.058;2022-11-04T17:22:07;12.00;99.90
23271;DHT22;11804;51.118;17.058;2022-11-04T17:24:34;12.00;99.90
23271;DHT22;11804;51.118;17.058;2022-11-04T17:27:03;12.00;99.90
23271;DHT22;11804;51.118;17.058;2022-11-04T17:29:31;12.00;99.90
23271;DHT22;11804;51.118;17.058;2022-11-04T17:32:01;12.00;99.90